Time;durP1;ratioP1;P1;durP2;ratioP2;P2;SDS_P1;SDS_P2;PMS_P1;PMS_P2;Temp;Humidity;BMP_temperature;BMP_pressure;BME280_temperature;BME280_humidity;BME280_pressure;Samples;Min_cycle;Max_cycle;Signal;HPM_P1;HPM_P2
2022/09/26 00:00:43;;;;;;;0.27;0.23;;;10.90;99.90;;;;;;6192602;23;20464;-89
2022/09/26 00:03:10;;;;;;;0.10;0.10;;;10.90;99.90;;;;;;6193129;23;20093;-88
2022/09/26 00:05:37;;;;;;;0.10;0.10;;;10.90;99.90;;;;;;6217772;23;20444;-89
2022/09/26 00:08:05;;;;;;;0.10;0.10;;;10.80;99.90;;;;;;6193693;23;20035;-89
2022/09/26 00:10:31;;;;;;;0.10;0.10;;;10.80;99.90;;;;;;6193084;23;20020;-88
2022/09/26 00:13:00;;;;;;;0.10;0.10;;;10.80;99.90;;;;;;6194229;23;20078;-89
2022/09/26 00:15:26;;;;;;;0.40;0.20;;;10.80;99.90;;;;;;6193384;23;20012;-89
2022/09/26 00:17:52;;;;;;;0.25;0.22;;;10.70;99.90;;;;;;6217814;23;20062;-89
2022/09/26 00:20:18;;;;;;;0.03;0.03;;;10.70;99.90;;;;;;6168951;23;20019;-89
2022/09/26 00:22:43;;;;;;;0.13;0.13;;;10.70;99.90;;;;;;6217621;23;20013;-88
2022/09/26 00:25:11;;;;;;;0.10;0.00;;;10.70;99.90;;;;;;6143754;23;20021;-90
2022/09/26 00:27:37;;;;;;;0.77;0.30;;;10.70;99.90;;;;;;6218334;23;20446;-88
2022/09/26 00:30:03;;;;;;;0.10;0.10;;;10.70;99.90;;;;;;6169108;23;20012;-89
2022/09/26 00:32:30;;;;;;;0.43;0.17;;;10.70;99.90;;;;;;6193216;23;20020;-89
2022/09/26 00:34:58;;;;;;;0.13;0.13;;;10.70;99.90;;;;;;6192679;23;20517;-88
2022/09/26 00:37:24;;;;;;;0.38;0.32;;;10.70;99.90;;;;;;6145099;23;20437;-89
2022/09/26 00:39:49;;;;;;;0.60;0.47;;;10.70;99.90;;;;;;6193366;23;20077;-89
2022/09/26 00:42:15;;;;;;;0.30;0.30;;;10.70;99.90;;;;;;6194117;23;20333;-89
2022/09/26 00:44:45;;;;;;;0.20;0.20;;;10.70;99.90;;;;;;6167899;23;20012;-89
2022/09/26 00:47:33;;;;;;;0.00;0.00;;;10.70;99.90;;;;;;6217938;23;20027;-89
2022/09/26 00:50:05;;;;;;;0.30;0.25;;;10.70;99.90;;;;;;6192425;23;20065;-88
2022/09/26 00:52:41;;;;;;;0.10;0.10;;;10.70;99.90;;;;;;6218040;23;20429;-89
2022/09/26 00:55:12;;;;;;;0.20;0.10;;;10.30;99.90;;;;;;6217829;23;20051;-89
2022/09/26 00:57:45;;;;;;;0.00;0.00;;;10.80;99.90;;;;;;6192716;23;20016;-87
2022/09/26 01:00:13;;;;;;;0.95;0.20;;;10.70;99.90;;;;;;6218064;23;20020;-88
2022/09/26 01:02:41;;;;;;;0.13;0.13;;;10.70;99.90;;;;;;6191981;23;20024;-88
2022/09/26 01:05:10;;;;;;;0.77;0.25;;;10.70;99.90;;;;;;6168334;23;20115;-88
2022/09/26 01:07:35;;;;;;;0.20;0.20;;;10.70;99.90;;;;;;6192687;23;20514;-89
2022/09/26 01:10:04;;;;;;;0.23;0.23;;;10.70;99.90;;;;;;6142616;23;20012;-89
2022/09/26 01:12:30;;;;;;;0.30;0.20;;;10.70;99.90;;;;;;6217874;23;20016;-88
2022/09/26 01:14:57;;;;;;;0.38;0.20;;;10.70;99.90;;;;;;6217182;23;20020;-89
2022/09/26 01:17:24;;;;;;;0.15;0.15;;;10.70;99.90;;;;;;6192841;23;20407;-89
2022/09/26 01:20:23;;;;;;;0.28;0.20;;;10.70;99.90;;;;;;6167587;23;20078;-88
2022/09/26 01:23:12;;;;;;;0.43;0.43;;;10.70;99.90;;;;;;6191350;23;20022;-88
2022/09/26 01:25:51;;;;;;;0.10;0.10;;;10.70;99.90;;;;;;6217549;23;20051;-89
2022/09/26 01:28:46;;;;;;;0.63;0.30;;;10.60;99.90;;;;;;6192262;23;20020;-89
2022/09/26 01:31:35;;;;;;;0.30;0.20;;;10.70;99.90;;;;;;6192229;23;20020;-89
2022/09/26 01:34:27;;;;;;;0.13;0.10;;;10.70;99.90;;;;;;6191557;23;20523;-89
2022/09/26 01:37:34;;;;;;;0.30;0.10;;;10.60;99.90;;;;;;6216704;23;20015;-89
2022/09/26 01:40:09;;;;;;;0.80;0.10;;;10.70;99.90;;;;;;6216384;23;20077;-88
2022/09/26 01:42:57;;;;;;;0.57;0.20;;;10.70;99.90;;;;;;6192180;23;20055;-89
2022/09/26 01:45:29;;;;;;;0.10;0.10;;;10.70;99.90;;;;;;6192251;23;20031;-89
2022/09/26 01:48:17;;;;;;;0.10;0.10;;;10.70;99.90;;;;;;6216855;23;20047;-89
2022/09/26 01:50:52;;;;;;;;;;;10.70;99.90;;;;;;6169290;23;20027;-89
2022/09/26 01:53:59;;;;;;;0.00;0.00;;;10.20;99.90;;;;;;6217228;23;19915;-89
2022/09/26 01:56:30;;;;;;;0.00;0.00;;;10.70;99.90;;;;;;6068071;23;20022;-89
2022/09/26 01:59:12;;;;;;;0.10;0.10;;;10.80;99.90;;;;;;6067614;23;20197;-89
2022/09/26 02:01:42;;;;;;;0.13;0.13;;;10.70;99.90;;;;;;6162886;23;20027;-89
2022/09/26 02:04:13;;;;;;;0.57;0.17;;;10.70;99.90;;;;;;6215859;23;20170;-89
2022/09/26 02:06:56;;;;;;;1.45;0.10;;;10.70;99.90;;;;;;6192283;23;20051;-88
2022/09/26 02:09:31;;;;;;;0.28;0.20;;;10.80;99.90;;;;;;6192153;23;20067;-88
2022/09/26 02:12:02;;;;;;;0.10;0.10;;;10.80;99.90;;;;;;6191293;23;20026;-90
2022/09/26 02:14:32;;;;;;;0.10;0.10;;;10.80;99.90;;;;;;6192455;23;20019;-88
2022/09/26 02:17:09;;;;;;;0.20;0.20;;;10.70;99.90;;;;;;6216831;23;20042;-89
2022/09/26 02:20:23;;;;;;;0.30;0.10;;;11.10;99.90;;;;;;6217612;23;20054;-89
2022/09/26 02:22:49;;;;;;;0.35;0.20;;;10.70;99.90;;;;;;6068203;23;20025;-89
2022/09/26 02:25:15;;;;;;;0.10;0.10;;;10.80;99.90;;;;;;6160918;23;20103;-87
2022/09/26 02:27:41;;;;;;;0.30;0.30;;;10.80;99.90;;;;;;6167330;23;20039;-89
2022/09/26 02:30:07;;;;;;;0.40;0.10;;;10.80;99.90;;;;;;6166610;23;20024;-88
2022/09/26 02:32:34;;;;;;;0.10;0.10;;;10.80;99.90;;;;;;6191886;23;20023;-88
2022/09/26 02:35:00;;;;;;;;;;;10.80;99.90;;;;;;6169170;23;20016;-89
2022/09/26 02:37:29;;;;;;;0.28;0.25;;;10.80;99.90;;;;;;6219147;23;20324;-88
2022/09/26 02:39:56;;;;;;;0.73;0.13;;;10.80;99.90;;;;;;6193286;23;20016;-89
2022/09/26 02:42:48;;;;;;;0.17;0.17;;;10.70;99.90;;;;;;6193551;23;20016;-88
2022/09/26 02:45:27;;;;;;;0.08;0.08;;;10.80;99.90;;;;;;6218330;23;20316;-88
2022/09/26 02:48:10;;;;;;;0.13;0.13;;;10.70;99.90;;;;;;6218551;23;20016;-88
2022/09/26 02:50:51;;;;;;;0.20;0.20;;;10.80;99.90;;;;;;6219256;23;20020;-88
2022/09/26 02:53:54;;;;;;;0.10;0.10;;;10.70;99.90;;;;;;6193070;23;20024;-89
2022/09/26 02:56:28;;;;;;;0.63;0.20;;;10.70;99.90;;;;;;6218801;23;20091;-88
2022/09/26 02:59:05;;;;;;;0.52;0.17;;;10.70;99.90;;;;;;6193531;23;20066;-87
2022/09/26 03:02:02;;;;;;;0.10;0.10;;;10.70;99.90;;;;;;6193348;23;20020;-89
2022/09/26 03:04:47;;;;;;;0.73;0.17;;;10.10;99.90;;;;;;6193647;23;20524;-88
2022/09/26 03:07:19;;;;;;;0.90;0.30;;;10.60;99.90;;;;;;6192726;23;20016;-88
2022/09/26 03:09:47;;;;;;;1.38;0.28;;;10.60;99.90;;;;;;6193498;23;20012;-88
2022/09/26 03:12:13;;;;;;;0.10;0.10;;;10.60;99.90;;;;;;6217678;23;20023;-88
2022/09/26 03:14:41;;;;;;;0.40;0.40;;;10.50;99.90;;;;;;6218389;23;20016;-88
2022/09/26 03:17:08;;;;;;;0.35;0.30;;;10.50;99.90;;;;;;6218154;23;20027;-88
2022/09/26 03:20:00;;;;;;;0.30;0.20;;;10.50;99.90;;;;;;6194076;23;20008;-87
2022/09/26 03:22:26;;;;;;;0.40;0.40;;;10.50;99.90;;;;;;6244382;23;20016;-87
2022/09/26 03:24:52;;;;;;;0.57;0.40;;;10.50;99.90;;;;;;6144476;23;20031;-87
2022/09/26 03:27:19;;;;;;;0.65;0.25;;;10.50;99.90;;;;;;6192968;23;20016;-88
2022/09/26 03:29:45;;;;;;;;;;;10.50;99.90;;;;;;6218849;23;20317;-86
2022/09/26 03:32:10;;;;;;;0.20;0.20;;;10.50;99.90;;;;;;6167861;23;19954;-87
2022/09/26 03:34:38;;;;;;;0.30;0.30;;;10.40;99.90;;;;;;6168555;23;20020;-87
2022/09/26 03:37:05;;;;;;;0.15;0.15;;;10.40;99.90;;;;;;6168778;23;20444;-86
2022/09/26 03:39:31;;;;;;;0.08;0.08;;;10.40;99.90;;;;;;6193045;23;20024;-87
2022/09/26 03:41:57;;;;;;;0.20;0.20;;;10.40;99.90;;;;;;6168510;23;20024;-87
2022/09/26 03:44:24;;;;;;;0.22;0.22;;;10.40;99.90;;;;;;6167700;23;20024;-88
2022/09/26 03:46:50;;;;;;;0.20;0.20;;;10.40;99.90;;;;;;6193341;23;20018;-87
2022/09/26 03:49:16;;;;;;;1.55;0.30;;;10.40;99.90;;;;;;6217922;23;20441;-87
2022/09/26 03:51:43;;;;;;;0.50;0.30;;;10.40;99.90;;;;;;6168625;23;20020;-86
2022/09/26 03:54:10;;;;;;;;;;;10.40;99.90;;;;;;6193027;23;20479;-87
2022/09/26 03:56:36;;;;;;;0.25;0.20;;;10.30;99.90;;;;;;6217970;23;19915;-87
2022/09/26 03:59:01;;;;;;;0.17;0.17;;;10.40;99.90;;;;;;6168674;23;20064;-87
2022/09/26 04:01:27;;;;;;;1.03;0.37;;;10.40;99.90;;;;;;6167950;23;20012;-87
2022/09/26 04:03:55;;;;;;;0.57;0.50;;;10.40;99.90;;;;;;6168372;23;20012;-87
2022/09/26 04:06:20;;;;;;;0.25;0.25;;;10.30;99.90;;;;;;6192420;23;20478;-87
2022/09/26 04:08:48;;;;;;;0.50;0.30;;;10.40;99.90;;;;;;6168409;23;20095;-87
2022/09/26 04:11:18;;;;;;;0.32;0.32;;;10.40;99.90;;;;;;6217083;23;20016;-87
2022/09/26 04:13:44;;;;;;;1.08;0.30;;;10.40;99.90;;;;;;6218050;23;20074;-87
2022/09/26 04:16:10;;;;;;;0.15;0.15;;;10.30;99.90;;;;;;6192579;23;20028;-87
2022/09/26 04:18:36;;;;;;;0.65;0.50;;;10.30;99.90;;;;;;6217904;23;20016;-88
2022/09/26 04:21:05;;;;;;;0.22;0.22;;;10.30;99.90;;;;;;6218124;23;20028;-87
2022/09/26 04:23:32;;;;;;;0.20;0.20;;;10.30;99.90;;;;;;6217578;23;20012;-87
2022/09/26 04:26:04;;;;;;;0.30;0.30;;;10.30;99.90;;;;;;6168361;23;20020;-87
2022/09/26 04:28:30;;;;;;;0.47;0.40;;;10.30;99.90;;;;;;6192288;23;20074;-87
2022/09/26 04:30:57;;;;;;;0.22;0.22;;;10.40;99.90;;;;;;6218080;23;20012;-88
2022/09/26 04:33:23;;;;;;;;;;;10.30;99.90;;;;;;6192758;23;20556;-87
2022/09/26 04:35:49;;;;;;;0.50;0.50;;;10.20;99.90;;;;;;6193119;23;19919;-87
2022/09/26 04:38:17;;;;;;;0.22;0.22;;;10.20;99.90;;;;;;6216957;23;20024;-87
2022/09/26 04:40:43;;;;;;;0.70;0.40;;;10.20;99.90;;;;;;6168661;23;20024;-87
2022/09/26 04:43:08;;;;;;;0.33;0.33;;;10.30;99.90;;;;;;6217455;23;20019;-86
2022/09/26 04:45:34;;;;;;;0.47;0.20;;;10.20;99.90;;;;;;6167852;23;20027;-87
2022/09/26 04:48:00;;;;;;;0.37;0.20;;;10.20;99.90;;;;;;6217572;23;20020;-87
2022/09/26 04:50:26;;;;;;;1.20;0.80;;;10.20;99.90;;;;;;6192341;23;20016;-87
2022/09/26 04:52:51;;;;;;;1.27;0.40;;;10.20;99.90;;;;;;6192816;23;20027;-87
2022/09/26 04:55:18;;;;;;;1.17;0.40;;;10.20;99.90;;;;;;6166934;23;20016;-87
2022/09/26 04:57:44;;;;;;;0.40;0.40;;;10.20;99.90;;;;;;6167584;23;20027;-87
2022/09/26 05:00:11;;;;;;;0.75;0.45;;;10.20;99.90;;;;;;6217599;23;20024;-87
2022/09/26 05:02:39;;;;;;;1.08;0.40;;;10.20;99.90;;;;;;6167955;23;20357;-87
2022/09/26 05:05:05;;;;;;;;;;;10.20;99.90;;;;;;6218039;23;20023;-87
2022/09/26 05:07:31;;;;;;;0.68;0.57;;;10.20;99.90;;;;;;6191702;23;19919;-87
2022/09/26 05:09:57;;;;;;;2.33;0.30;;;10.20;99.90;;;;;;6142597;23;20012;-87
2022/09/26 05:12:22;;;;;;;1.00;0.43;;;10.20;99.90;;;;;;6167225;23;20051;-87
2022/09/26 05:14:49;;;;;;;0.47;0.37;;;10.20;99.90;;;;;;6167968;23;20031;-88
2022/09/26 05:17:15;;;;;;;0.30;0.30;;;10.20;99.90;;;;;;6192242;23;20023;-87
2022/09/26 05:19:41;;;;;;;0.57;0.40;;;10.20;99.90;;;;;;6143455;23;20012;-87
2022/09/26 05:22:07;;;;;;;0.45;0.45;;;10.20;99.90;;;;;;6217464;23;20314;-88
2022/09/26 05:27:18;;;;;;;1.30;0.43;;;10.20;99.90;;;;;;6174625;23;20068;-87
2022/09/26 05:29:44;;;;;;;0.75;0.43;;;10.10;99.90;;;;;;6217295;23;20027;-87
2022/09/26 05:32:10;;;;;;;1.42;0.47;;;10.10;99.90;;;;;;6167952;23;20146;-87
2022/09/26 05:34:36;;;;;;;;;;;10.10;99.90;;;;;;6192028;23;20030;-87
2022/09/26 05:37:02;;;;;;;1.13;0.60;;;10.20;99.90;;;;;;6192470;23;19919;-87
2022/09/26 05:42:12;;;;;;;2.10;0.75;;;10.10;99.90;;;;;;6195787;23;20028;-87
2022/09/26 05:44:38;;;;;;;0.50;0.47;;;10.10;99.90;;;;;;6216662;23;20046;-89
2022/09/26 05:47:04;;;;;;;0.93;0.40;;;10.10;99.90;;;;;;6192375;23;20023;-87
2022/09/26 05:49:31;;;;;;;1.38;0.40;;;10.10;99.90;;;;;;6167221;23;20016;-88
2022/09/26 05:51:57;;;;;;;0.77;0.43;;;10.10;99.90;;;;;;6167847;23;20586;-88
2022/09/26 05:54:23;;;;;;;0.67;0.50;;;10.10;99.90;;;;;;6191632;23;20054;-87
2022/09/26 05:56:48;;;;;;;0.60;0.30;;;10.10;99.90;;;;;;6167216;23;20035;-87
2022/09/26 05:59:14;;;;;;;0.50;0.50;;;10.00;99.90;;;;;;6167085;23;20023;-88
2022/09/26 06:01:39;;;;;;;1.40;0.50;;;10.00;99.90;;;;;;6191439;23;20022;-87
2022/09/26 06:04:05;;;;;;;1.40;0.70;;;10.00;99.90;;;;;;6166918;23;20020;-88
2022/09/26 06:06:31;;;;;;;1.10;0.40;;;10.00;99.90;;;;;;6166973;23;20429;-87
2022/09/26 06:08:56;;;;;;;0.73;0.37;;;10.00;99.90;;;;;;6168758;23;20016;-87
2022/09/26 06:11:26;;;;;;;0.63;0.40;;;10.00;99.90;;;;;;6218703;23;20425;-87
2022/09/26 06:13:52;;;;;;;1.13;0.30;;;10.00;99.90;;;;;;6194233;23;20117;-87
2022/09/26 06:16:19;;;;;;;1.43;1.00;;;10.00;99.90;;;;;;6169913;23;20015;-87
2022/09/26 06:18:46;;;;;;;0.30;0.20;;;10.00;99.90;;;;;;6168999;23;20074;-87
2022/09/26 06:21:14;;;;;;;0.60;0.40;;;10.00;99.90;;;;;;6193915;23;20016;-88
2022/09/26 06:23:40;;;;;;;2.92;0.50;;;10.00;99.90;;;;;;6193338;23;20074;-87
2022/09/26 06:26:11;;;;;;;0.52;0.52;;;10.10;99.90;;;;;;6169130;23;20017;-86
2022/09/26 06:28:38;;;;;;;0.50;0.50;;;10.00;99.90;;;;;;6218544;23;20054;-87
2022/09/26 06:31:17;;;;;;;0.70;0.40;;;10.00;99.90;;;;;;6218893;23;20008;-87
2022/09/26 06:33:47;;;;;;;0.50;0.50;;;10.00;99.90;;;;;;6218384;23;20475;-88
2022/09/26 06:36:13;;;;;;;0.52;0.50;;;10.00;99.90;;;;;;6194182;23;20016;-87
2022/09/26 06:38:39;;;;;;;0.87;0.40;;;10.00;99.90;;;;;;6170473;23;20015;-87
2022/09/26 06:41:06;;;;;;;0.40;0.40;;;10.00;99.90;;;;;;6194268;23;20074;-87
2022/09/26 06:43:32;;;;;;;0.68;0.38;;;10.00;99.90;;;;;;6192908;23;20024;-88
2022/09/26 06:45:58;;;;;;;1.55;0.40;;;10.00;99.90;;;;;;6193539;23;20024;-87
2022/09/26 06:48:24;;;;;;;0.40;0.33;;;10.00;99.90;;;;;;6218657;23;20012;-87
2022/09/26 06:50:59;;;;;;;0.57;0.57;;;10.00;99.90;;;;;;6194624;23;20072;-87
2022/09/26 06:53:25;;;;;;;1.10;0.73;;;10.00;99.90;;;;;;6194063;23;20008;-87
2022/09/26 06:55:50;;;;;;;0.27;0.27;;;10.00;99.90;;;;;;6169448;23;20016;-87
2022/09/26 06:58:17;;;;;;;0.43;0.30;;;10.00;99.90;;;;;;6194238;23;20091;-87
2022/09/26 07:00:42;;;;;;;2.22;0.90;;;10.00;99.90;;;;;;6193794;23;20012;-87
2022/09/26 07:03:09;;;;;;;1.03;0.33;;;10.00;99.90;;;;;;6194143;23;20085;-88
2022/09/26 07:05:34;;;;;;;0.10;0.10;;;10.00;99.90;;;;;;6218220;23;20404;-86
2022/09/26 07:08:01;;;;;;;2.07;0.30;;;10.00;99.90;;;;;;6193727;23;20039;-87
2022/09/26 07:10:29;;;;;;;;;;;10.00;99.90;;;;;;6193441;23;20012;-86
2022/09/26 07:13:02;;;;;;;0.85;0.57;;;9.90;99.90;;;;;;6193778;23;19921;-89
2022/09/26 07:15:31;;;;;;;0.32;0.20;;;9.70;99.90;;;;;;6193853;23;20027;-92
2022/09/26 07:18:01;;;;;;;0.20;0.20;;;9.90;99.90;;;;;;6221203;23;20032;-90
2022/09/26 07:20:28;;;;;;;0.25;0.25;;;9.90;99.90;;;;;;6194080;23;20016;-94
2022/09/26 07:22:54;;;;;;;0.20;0.20;;;9.80;99.90;;;;;;6244427;23;20379;-87
2022/09/26 07:25:19;;;;;;;1.67;0.40;;;9.90;99.90;;;;;;6169118;23;20020;-90
2022/09/26 07:27:49;;;;;;;0.60;0.30;;;9.90;99.90;;;;;;6192733;23;20095;-88
2022/09/26 07:30:15;;;;;;;0.30;0.30;;;9.90;99.90;;;;;;6218729;23;20042;-87
2022/09/26 07:32:46;;;;;;;0.33;0.23;;;9.90;99.90;;;;;;6168483;23;20095;-89
2022/09/26 07:35:13;;;;;;;0.25;0.25;;;9.90;99.90;;;;;;6194770;23;20035;-88
2022/09/26 07:37:39;;;;;;;0.75;0.60;;;9.90;99.90;;;;;;6193364;23;20019;-89
2022/09/26 07:40:05;;;;;;;0.80;0.35;;;9.90;99.90;;;;;;6243665;23;20043;-90
2022/09/26 07:42:31;;;;;;;0.40;0.40;;;9.90;99.90;;;;;;6219033;23;20017;-88
2022/09/26 07:44:57;;;;;;;0.45;0.45;;;9.90;99.90;;;;;;6218791;23;20020;-87
2022/09/26 07:50:11;;;;;;;0.20;0.20;;;9.90;99.90;;;;;;6197239;23;20016;-87
2022/09/26 07:52:38;;;;;;;0.50;0.40;;;9.80;99.90;;;;;;6170001;23;20013;-87
2022/09/26 07:55:04;;;;;;;0.40;0.40;;;9.90;99.90;;;;;;6218466;23;20070;-86
2022/09/26 07:57:33;;;;;;;0.30;0.30;;;9.90;99.90;;;;;;6193503;23;20015;-86
2022/09/26 07:59:59;;;;;;;0.75;0.38;;;9.90;99.90;;;;;;6169346;23;20012;-85
2022/09/26 08:02:32;;;;;;;0.60;0.28;;;9.90;99.90;;;;;;6168069;23;20094;-87
2022/09/26 08:04:59;;;;;;;0.55;0.38;;;9.90;99.90;;;;;;6193660;23;20103;-85
2022/09/26 08:07:25;;;;;;;0.80;0.55;;;9.90;99.90;;;;;;6218641;23;20074;-85
2022/09/26 08:09:54;;;;;;;0.23;0.23;;;9.90;99.90;;;;;;6168101;23;20020;-85
2022/09/26 08:12:20;;;;;;;1.40;0.30;;;9.90;99.90;;;;;;6218116;23;20016;-85
2022/09/26 08:14:51;;;;;;;0.10;0.10;;;9.90;99.90;;;;;;6192892;23;20020;-85
2022/09/26 08:17:18;;;;;;;0.30;0.22;;;9.90;99.90;;;;;;6198439;23;20110;-85
2022/09/26 08:19:44;;;;;;;0.75;0.25;;;9.90;99.90;;;;;;6218453;23;20396;-83
2022/09/26 08:22:10;;;;;;;0.20;0.20;;;10.00;99.90;;;;;;6193580;23;20020;-83
2022/09/26 08:24:37;;;;;;;0.75;0.70;;;10.00;99.90;;;;;;6218955;23;20027;-84
2022/09/26 08:27:04;;;;;;;0.10;0.10;;;10.00;99.90;;;;;;6193442;23;20066;-84
2022/09/26 08:29:31;;;;;;;0.47;0.30;;;10.10;99.90;;;;;;6244933;23;20016;-83
2022/09/26 08:31:57;;;;;;;0.30;0.30;;;10.10;99.90;;;;;;6193181;23;20024;-83
2022/09/26 08:34:23;;;;;;;0.63;0.17;;;10.10;99.90;;;;;;6244931;23;20022;-83
2022/09/26 08:36:53;;;;;;;0.75;0.28;;;10.20;99.90;;;;;;6192578;23;20043;-84
2022/09/26 08:39:21;;;;;;;0.30;0.30;;;10.10;99.90;;;;;;6217905;23;20051;-83
2022/09/26 08:42:03;;;;;;;0.30;0.15;;;10.20;99.90;;;;;;6192539;23;20074;-86
2022/09/26 08:44:35;;;;;;;0.30;0.30;;;10.20;99.90;;;;;;6219154;23;20463;-85
2022/09/26 08:47:30;;;;;;;0.43;0.40;;;10.20;99.90;;;;;;6218601;23;20095;-85
2022/09/26 08:50:23;;;;;;;0.30;0.30;;;10.20;99.90;;;;;;6218593;23;20016;-85
2022/09/26 08:52:55;;;;;;;0.35;0.25;;;10.30;99.90;;;;;;6218851;23;20314;-85
2022/09/26 08:55:33;;;;;;;0.40;0.25;;;10.30;99.90;;;;;;6194120;23;20027;-86
2022/09/26 08:58:04;;;;;;;0.40;0.40;;;10.30;99.90;;;;;;6218642;23;20024;-85
2022/09/26 09:00:35;;;;;;;1.23;0.40;;;10.30;99.90;;;;;;6193692;23;20016;-85
2022/09/26 09:03:28;;;;;;;0.10;0.10;;;10.30;99.90;;;;;;6193181;23;20020;-84
2022/09/26 09:06:07;;;;;;;0.25;0.17;;;10.40;99.90;;;;;;6218379;23;20016;-85
2022/09/26 09:08:51;;;;;;;0.38;0.38;;;10.40;99.90;;;;;;6218882;23;20091;-85
2022/09/26 09:11:29;;;;;;;0.30;0.30;;;10.40;99.90;;;;;;6222667;23;20016;-84
2022/09/26 09:13:58;;;;;;;0.98;0.30;;;10.50;99.90;;;;;;6192342;23;20020;-84
2022/09/26 09:16:39;;;;;;;0.20;0.20;;;10.50;99.90;;;;;;6218074;23;20440;-84
2022/09/26 09:19:41;;;;;;;0.40;0.30;;;10.60;99.90;;;;;;6192459;23;20013;-84
2022/09/26 09:22:28;;;;;;;0.35;0.22;;;10.60;99.90;;;;;;6192425;23;20023;-84
2022/09/26 09:25:22;;;;;;;0.40;0.40;;;10.70;99.90;;;;;;6191982;23;20016;-84
2022/09/26 09:28:00;;;;;;;0.13;0.13;;;10.70;99.90;;;;;;6192359;23;20020;-84
2022/09/26 09:30:38;;;;;;;0.55;0.35;;;10.70;99.90;;;;;;6192486;23;20019;-84
2022/09/26 09:33:12;;;;;;;0.35;0.32;;;10.80;99.90;;;;;;6192330;23;20024;-85
2022/09/26 09:35:42;;;;;;;0.28;0.28;;;10.80;99.90;;;;;;6217601;23;20421;-84
2022/09/26 09:38:16;;;;;;;0.60;0.40;;;10.80;99.90;;;;;;6192192;23;20024;-85
2022/09/26 09:40:50;;;;;;;0.60;0.25;;;10.80;99.90;;;;;;6217544;23;20027;-84
2022/09/26 09:43:29;;;;;;;0.50;0.40;;;10.80;99.90;;;;;;6217733;23;20012;-83
2022/09/26 09:46:02;;;;;;;0.65;0.28;;;10.80;99.90;;;;;;6242559;23;20137;-84
2022/09/26 09:48:29;;;;;;;0.20;0.20;;;10.80;99.90;;;;;;6217715;23;20012;-84
2022/09/26 09:51:28;;;;;;;0.30;0.10;;;10.80;99.90;;;;;;6217210;23;20020;-84
2022/09/26 09:53:54;;;;;;;0.40;0.20;;;10.90;99.90;;;;;;6192034;23;20064;-84
2022/09/26 09:56:55;;;;;;;0.90;0.20;;;10.90;99.90;;;;;;6192996;23;20024;-85
2022/09/26 09:59:43;;;;;;;0.30;0.30;;;10.90;99.90;;;;;;6186195;23;20451;-84
2022/09/26 10:02:27;;;;;;;0.13;0.13;;;10.90;99.90;;;;;;6217371;23;20067;-84
2022/09/26 10:05:19;;;;;;;0.30;0.30;;;10.90;99.90;;;;;;6192195;23;20028;-85
2022/09/26 10:07:46;;;;;;;1.17;0.45;;;10.50;99.90;;;;;;6192683;23;20117;-84
2022/09/26 10:10:19;;;;;;;0.30;0.30;;;10.80;99.90;;;;;;6192185;23;20020;-84
2022/09/26 10:12:48;;;;;;;0.77;0.20;;;10.90;99.90;;;;;;6192795;23;20461;-84
2022/09/26 10:15:20;;;;;;;0.75;0.35;;;10.80;99.90;;;;;;6191899;23;20023;-84
2022/09/26 10:18:07;;;;;;;0.40;0.40;;;10.80;99.90;;;;;;6217435;23;20066;-84
2022/09/26 10:20:40;;;;;;;0.40;0.33;;;10.90;99.90;;;;;;6217397;23;20103;-83
2022/09/26 10:23:18;;;;;;;0.35;0.22;;;10.90;99.90;;;;;;6191949;23;20051;-85
2022/09/26 10:25:47;;;;;;;0.30;0.30;;;10.90;99.90;;;;;;6217483;23;20016;-86
2022/09/26 10:28:25;;;;;;;0.20;0.20;;;10.90;99.90;;;;;;6217028;23;20020;-84
2022/09/26 10:30:54;;;;;;;0.30;0.20;;;11.00;99.90;;;;;;6244054;23;20456;-84
2022/09/26 10:33:24;;;;;;;0.40;0.40;;;11.00;99.90;;;;;;6168252;23;20027;-84
2022/09/26 10:35:51;;;;;;;1.30;0.43;;;11.00;99.90;;;;;;6217478;23;20344;-84
2022/09/26 10:38:23;;;;;;;0.60;0.60;;;11.00;99.90;;;;;;6167523;23;20030;-84
2022/09/26 10:41:00;;;;;;;0.20;0.15;;;11.00;99.90;;;;;;6217297;23;20016;-85
2022/09/26 10:43:32;;;;;;;0.22;0.22;;;11.10;99.90;;;;;;6217696;23;20054;-84
2022/09/26 10:46:12;;;;;;;0.95;0.30;;;11.00;99.90;;;;;;6193043;23;20016;-85
2022/09/26 10:48:47;;;;;;;0.28;0.28;;;11.00;99.90;;;;;;6217812;23;20008;-84
2022/09/26 10:51:28;;;;;;;0.30;0.30;;;11.00;99.90;;;;;;6191885;23;20020;-84
2022/09/26 10:54:07;;;;;;;0.47;0.47;;;11.00;99.90;;;;;;6192601;23;20348;-84
2022/09/26 10:56:40;;;;;;;0.38;0.38;;;11.00;99.90;;;;;;6219171;23;20349;-84
2022/09/26 10:59:09;;;;;;;1.10;0.35;;;11.00;99.90;;;;;;6193882;23;20016;-83
2022/09/26 11:01:42;;;;;;;0.60;0.57;;;11.00;99.90;;;;;;6193961;23;20048;-84
2022/09/26 11:04:11;;;;;;;0.35;0.30;;;11.00;99.90;;;;;;6193130;23;20099;-84
2022/09/26 11:06:44;;;;;;;0.90;0.30;;;11.00;99.90;;;;;;6196284;23;20016;-84
2022/09/26 11:09:12;;;;;;;0.47;0.47;;;11.00;99.90;;;;;;6194439;23;20048;-84
2022/09/26 11:11:41;;;;;;;0.70;0.30;;;11.00;99.90;;;;;;6169908;23;20099;-83
2022/09/26 11:14:07;;;;;;;0.38;0.30;;;10.90;99.90;;;;;;6193604;23;20012;-84
2022/09/26 11:16:49;;;;;;;0.30;0.30;;;10.90;99.90;;;;;;6193684;23;20012;-84
2022/09/26 11:19:47;;;;;;;0.45;0.30;;;10.90;99.90;;;;;;6219626;23;20115;-85
2022/09/26 11:22:24;;;;;;;0.63;0.50;;;10.90;99.90;;;;;;6193698;23;20103;-84
2022/09/26 11:25:21;;;;;;;0.25;0.25;;;10.90;99.90;;;;;;6193365;23;20027;-85
2022/09/26 11:28:30;;;;;;;0.47;0.30;;;10.80;99.90;;;;;;6219079;23;20012;-86
2022/09/26 11:31:02;;;;;;;0.95;0.50;;;10.90;99.90;;;;;;6193119;23;20075;-85
2022/09/26 11:33:29;;;;;;;0.47;0.35;;;10.90;99.90;;;;;;6194208;23;20048;-85
2022/09/26 11:36:03;;;;;;;;;;;10.90;99.90;;;;;;6169910;23;20016;-87
2022/09/26 11:38:37;;;;;;;0.30;0.30;;;10.90;99.90;;;;;;6219058;23;19915;-86
2022/09/26 11:41:37;;;;;;;0.10;0.10;;;10.90;99.90;;;;;;6194612;23;20073;-86
2022/09/26 11:44:33;;;;;;;0.30;0.30;;;10.90;99.90;;;;;;6195721;23;20031;-87
2022/09/26 11:47:20;;;;;;;0.38;0.38;;;10.90;99.90;;;;;;6194560;23;20020;-85
2022/09/26 11:50:02;;;;;;;1.45;0.30;;;10.90;99.90;;;;;;6194328;23;20039;-86
2022/09/26 11:52:44;;;;;;;0.43;0.30;;;10.90;99.90;;;;;;6218287;23;20099;-86
2022/09/26 11:55:41;;;;;;;0.10;0.10;;;10.90;99.90;;;;;;6245017;23;20016;-85
2022/09/26 11:58:36;;;;;;;0.55;0.30;;;10.90;99.90;;;;;;6169743;23;20095;-85
2022/09/26 12:01:26;;;;;;;0.75;0.60;;;10.90;99.90;;;;;;6192999;23;20074;-88
2022/09/26 12:04:14;;;;;;;3.03;0.40;;;10.90;99.90;;;;;;6193270;23;20388;-86
2022/09/26 12:07:11;;;;;;;0.75;0.20;;;10.90;99.90;;;;;;6193456;23;20024;-86
2022/09/26 12:10:01;;;;;;;0.30;0.28;;;10.90;99.90;;;;;;6194204;23;20018;-86
2022/09/26 12:12:48;;;;;;;0.30;0.22;;;10.90;99.90;;;;;;6194104;23;20518;-86
2022/09/26 12:15:24;;;;;;;0.15;0.15;;;10.90;99.90;;;;;;6193875;23;20468;-86
2022/09/26 12:18:14;;;;;;;0.10;0.10;;;11.00;99.90;;;;;;6219559;23;20090;-86
2022/09/26 12:21:12;;;;;;;0.10;0.10;;;11.00;99.90;;;;;;6194646;23;20016;-86
2022/09/26 12:24:04;;;;;;;0.50;0.28;;;11.00;99.90;;;;;;6168606;23;20095;-86
2022/09/26 12:26:50;;;;;;;0.20;0.20;;;11.00;99.90;;;;;;6193907;23;20349;-86
2022/09/26 12:29:51;;;;;;;0.32;0.30;;;11.00;99.90;;;;;;6193746;23;20012;-85
2022/09/26 12:33:03;;;;;;;0.17;0.17;;;11.00;99.90;;;;;;6193623;23;20027;-86
2022/09/26 12:36:17;;;;;;;0.65;0.20;;;11.00;99.90;;;;;;6129069;23;20020;-85
2022/09/26 12:39:01;;;;;;;0.10;0.10;;;11.00;99.90;;;;;;6219385;23;20023;-86
2022/09/26 12:41:53;;;;;;;0.52;0.32;;;11.00;99.90;;;;;;6193546;23;20016;-87
2022/09/26 12:45:16;;;;;;;0.93;0.20;;;11.00;99.90;;;;;;6218957;23;20083;-87
2022/09/26 12:48:14;;;;;;;0.22;0.22;;;11.10;99.90;;;;;;6070458;23;20051;-86
2022/09/26 12:51:21;;;;;;;0.20;0.20;;;11.10;99.90;;;;;;6094444;23;20106;-86
2022/09/26 12:53:55;;;;;;;0.17;0.15;;;11.10;99.90;;;;;;6193080;23;20016;-85
2022/09/26 12:56:25;;;;;;;0.50;0.22;;;11.10;99.90;;;;;;6192869;23;20051;-86
2022/09/26 12:59:11;;;;;;;0.25;0.25;;;11.10;99.90;;;;;;6193675;23;20012;-86
2022/09/26 13:02:27;;;;;;;0.20;0.20;;;11.10;99.90;;;;;;6192430;23;20479;-88
2022/09/26 13:05:46;;;;;;;0.75;0.22;;;11.10;99.90;;;;;;6069866;23;20018;-84
2022/09/26 13:08:44;;;;;;;0.10;0.10;;;11.20;99.90;;;;;;6041178;23;20046;-84
2022/09/26 13:11:55;;;;;;;0.98;0.80;;;11.20;99.90;;;;;;6098893;23;20348;-90
2022/09/26 13:14:43;;;;;;;0.20;0.20;;;11.20;99.90;;;;;;6193263;23;20016;-85
2022/09/26 13:17:24;;;;;;;0.30;0.20;;;11.20;99.90;;;;;;6218074;23;20012;-84
2022/09/26 13:20:13;;;;;;;0.45;0.22;;;11.20;99.90;;;;;;6218818;23;20016;-84
2022/09/26 13:22:52;;;;;;;0.40;0.40;;;11.20;99.90;;;;;;6193373;23;20020;-84
2022/09/26 13:25:43;;;;;;;0.10;0.10;;;11.20;99.90;;;;;;6218516;23;20022;-84
2022/09/26 13:28:17;;;;;;;0.20;0.20;;;11.30;99.90;;;;;;6193354;23;20110;-84
2022/09/26 13:30:50;;;;;;;0.30;0.30;;;11.30;99.90;;;;;;6193610;23;20026;-84
2022/09/26 13:33:30;;;;;;;0.43;0.20;;;11.30;99.90;;;;;;6193632;23;20444;-84
2022/09/26 13:35:59;;;;;;;0.10;0.10;;;11.30;99.90;;;;;;6218789;23;20013;-83